Time;durP1;ratioP1;P1;durP2;ratioP2;P2;SDS_P1;SDS_P2;PMS_P1;PMS_P2;Temp;Humidity;BMP_temperature;BMP_pressure;BME280_temperature;BME280_humidity;BME280_pressure;Samples;Min_cycle;Max_cycle;Signal;HPM_P1;HPM_P2
2023/12/11 00:00:06;;;;;;;0.50;0.50;;;;;;;7.62;100.00;95913.44;29395;196;63009;-55
2023/12/11 00:00:39;;;;;;;2.25;1.05;;;;;;;7.71;100.00;95913.56;29395;252;63004;-53
2023/12/11 00:01:10;;;;;;;0.60;0.60;;;;;;;7.74;100.00;95919.16;29394;228;64013;-68
2023/12/11 00:01:43;;;;;;;0.50;0.50;;;;;;;7.72;100.00;95915.97;29395;227;63004;-53
2023/12/11 00:02:15;;;;;;;0.50;0.50;;;;;;;7.67;100.00;95907.16;29395;223;63008;-54
2023/12/11 00:02:46;;;;;;;0.55;0.55;;;;;;;7.63;100.00;95919.62;29395;266;63005;-53
2023/12/11 00:03:19;;;;;;;0.50;0.50;;;;;;;7.59;100.00;95915.97;29395;205;63009;-54
2023/12/11 00:03:50;;;;;;;0.50;0.50;;;;;;;7.57;100.00;95918.16;29395;208;63005;-53
2023/12/11 00:04:21;;;;;;;0.60;0.60;;;;;;;7.63;100.00;95920.44;29395;229;63009;-55
2023/12/11 00:04:52;;;;;;;0.50;0.50;;;;;;;7.65;100.00;95920.94;29395;260;63005;-55
2023/12/11 00:05:23;;;;;;;0.50;0.50;;;;;;;7.67;100.00;95918.75;29395;225;63009;-54
2023/12/11 00:05:55;;;;;;;0.50;0.50;;;;;;;7.65;100.00;95910.16;29395;222;63005;-53
2023/12/11 00:06:26;;;;;;;0.60;0.60;;;;;;;7.59;100.00;95899.75;29394;207;64013;-53
2023/12/11 00:06:57;;;;;;;0.50;0.50;;;;;;;7.63;100.00;95906.13;29395;250;63005;-54
2023/12/11 00:07:29;;;;;;;0.50;0.50;;;;;;;7.62;100.00;95904.56;29395;258;63009;-67
2023/12/11 00:08:00;;;;;;;0.60;0.60;;;;;;;7.65;100.00;95910.16;29395;277;63004;-52
2023/12/11 00:08:33;;;;;;;0.50;0.50;;;;;;;7.62;100.00;95901.88;29395;361;63009;-53
2023/12/11 00:09:04;;;;;;;0.50;0.50;;;;;;;7.59;100.00;95915.97;29394;267;64004;-54
2023/12/11 00:09:36;;;;;;;0.50;0.50;;;;;;;7.59;100.00;95916.75;29395;277;63008;-58
2023/12/11 00:10:08;;;;;;;3.58;3.35;;;;;;;7.62;100.00;95916.13;29395;243;63005;-55
2023/12/11 00:10:39;;;;;;;0.60;0.60;;;;;;;7.60;100.00;95912.97;29395;219;63009;-53
2023/12/11 00:11:12;;;;;;;0.60;0.60;;;;;;;7.56;100.00;95922.75;29395;222;63005;-55
2023/12/11 00:11:44;;;;;;;0.50;0.50;;;;;;;7.54;100.00;95924.16;29394;251;64013;-53
2023/12/11 00:12:16;;;;;;;0.52;0.52;;;;;;;7.56;100.00;95917.34;29395;234;63005;-54
2023/12/11 00:12:47;;;;;;;0.50;0.50;;;;;;;7.54;100.00;95910.66;29395;332;63013;-53
2023/12/11 00:13:19;;;;;;;0.50;0.50;;;;;;;7.50;100.00;95918.53;29395;203;63005;-68
2023/12/11 00:13:50;;;;;;;0.50;0.50;;;;;;;7.47;100.00;95926.41;29395;237;63009;-53
2023/12/11 00:14:21;;;;;;;0.60;0.60;;;;;;;7.44;100.00;95918.91;29395;388;63004;-53
2023/12/11 00:14:53;;;;;;;0.50;0.50;;;;;;;7.43;100.00;95920.00;29395;434;63009;-56
2023/12/11 00:15:24;;;;;;;0.50;0.50;;;;;;;7.44;100.00;95918.91;29395;232;63000;-68
2023/12/11 00:15:55;;;;;;;0.50;0.50;;;;;;;7.41;100.00;95925.69;29395;250;63009;-54
2023/12/11 00:16:30;;;;;;;0.50;0.50;;;;;;;7.43;100.00;95914.63;29395;228;63004;-54
2023/12/11 00:17:02;;;;;;;0.50;0.50;;;;;;;7.43;100.00;95911.91;29394;250;64013;-56
2023/12/11 00:17:34;;;;;;;0.60;0.60;;;;;;;7.45;100.00;95915.13;29395;200;63005;-54
2023/12/11 00:18:05;;;;;;;0.50;0.50;;;;;;;7.44;100.00;95905.41;29395;261;63009;-54
2023/12/11 00:18:37;;;;;;;0.60;0.60;;;;;;;7.40;100.00;95902.50;29395;229;63017;-53
2023/12/11 00:19:09;;;;;;;0.50;0.50;;;;;;;7.37;100.00;95903.91;29395;394;63009;-53
2023/12/11 00:19:41;;;;;;;0.60;0.60;;;;;;;7.40;100.00;95908.72;29395;270;63005;-55
2023/12/11 00:20:12;;;;;;;0.50;0.50;;;;;;;7.43;100.00;95907.31;29395;196;63009;-54
2023/12/11 00:20:44;;;;;;;0.60;0.60;;;;;;;7.40;100.00;95900.63;29395;279;63005;-53
2023/12/11 00:21:16;;;;;;;0.50;0.50;;;;;;;7.39;100.00;95907.09;29395;197;63016;-53
2023/12/11 00:21:47;;;;;;;0.50;0.50;;;;;;;7.36;100.00;95896.91;29395;202;63016;-53
2023/12/11 00:22:19;;;;;;;0.50;0.50;;;;;;;7.34;100.00;95888.28;29394;241;64013;-53
2023/12/11 00:22:50;;;;;;;0.50;0.50;;;;;;;7.33;100.00;95894.78;29395;214;63004;-53
2023/12/11 00:23:21;;;;;;;0.77;0.77;;;;;;;7.34;100.00;95888.28;29395;242;63009;-53
2023/12/11 00:23:54;;;;;;;0.50;0.50;;;;;;;7.38;100.00;95894.72;29395;202;63004;-53
2023/12/11 00:24:26;;;;;;;0.50;0.50;;;;;;;7.40;100.00;95897.91;29395;197;63008;-53
2023/12/11 00:24:57;;;;;;;0.70;0.70;;;;;;;7.45;100.00;95894.31;29395;207;63005;-54
2023/12/11 00:25:29;;;;;;;0.50;0.50;;;;;;;7.44;100.00;95900.03;29395;213;63009;-53
2023/12/11 00:26:00;;;;;;;0.50;0.50;;;;;;;7.43;100.00;95888.44;29394;285;64005;-53
2023/12/11 00:26:31;;;;;;;0.50;0.50;;;;;;;7.43;100.00;95890.31;29395;204;63009;-54
2023/12/11 00:27:03;;;;;;;0.50;0.50;;;;;;;7.40;100.00;95897.09;29395;222;63005;-54
2023/12/11 00:27:35;;;;;;;0.50;0.50;;;;;;;7.39;100.00;95890.91;29394;242;64013;-55
2023/12/11 00:28:06;;;;;;;0.50;0.50;;;;;;;7.39;100.00;95895.50;29395;245;63005;-53
2023/12/11 00:28:38;;;;;;;0.50;0.50;;;;;;;7.36;100.00;95891.50;29395;249;63009;-53
2023/12/11 00:29:09;;;;;;;0.50;0.50;;;;;;;7.35;100.00;95889.91;29395;202;63004;-53
2023/12/11 00:29:41;;;;;;;0.60;0.60;;;;;;;7.35;100.00;95892.59;29395;220;63009;-53
2023/12/11 00:30:14;;;;;;;0.50;0.50;;;;;;;7.34;100.00;95893.69;29396;247;63004;-54
2023/12/11 00:30:45;;;;;;;0.50;0.50;;;;;;;7.32;100.00;95895.88;29395;220;63009;-53
2023/12/11 00:31:17;;;;;;;0.50;0.50;;;;;;;7.31;100.00;95893.47;29396;202;63004;-55
2023/12/11 00:31:48;;;;;;;0.60;0.60;;;;;;;7.30;100.00;95887.28;29396;325;63008;-53
2023/12/11 00:32:19;;;;;;;0.60;0.60;;;;;;;7.31;100.00;95890.78;29396;218;63004;-53
2023/12/11 00:32:53;;;;;;;1.45;1.45;;;;;;;7.28;100.00;95894.88;29395;219;64014;-55
2023/12/11 00:33:24;;;;;;;0.50;0.50;;;;;;;7.25;100.00;95903.59;29396;199;63005;-54
2023/12/11 00:33:55;;;;;;;0.60;0.60;;;;;;;7.23;100.00;95903.09;29395;395;64014;-51
2023/12/11 00:34:27;;;;;;;0.60;0.60;;;;;;;7.27;100.00;95904.09;29396;204;63005;-52
2023/12/11 00:34:58;;;;;;;0.57;0.57;;;;;;;7.29;100.00;95903.78;29396;426;63009;-55
2023/12/11 00:35:29;;;;;;;0.60;0.60;;;;;;;7.31;100.00;95907.78;29396;266;63005;-52
2023/12/11 00:36:01;;;;;;;0.50;0.50;;;;;;;7.30;100.00;95898.06;29396;243;63009;-51
2023/12/11 00:36:32;;;;;;;0.50;0.50;;;;;;;7.30;100.00;95900.78;29396;249;63005;-51
2023/12/11 00:37:03;;;;;;;0.50;0.50;;;;;;;7.31;100.00;95905.06;29396;233;63009;-52
2023/12/11 00:37:35;;;;;;;0.50;0.50;;;;;;;7.33;100.00;95894.78;29396;209;63004;-53
2023/12/11 00:38:06;;;;;;;0.60;0.60;;;;;;;7.34;100.00;95904.50;29396;198;63009;-51
2023/12/11 00:38:37;;;;;;;0.50;0.50;;;;;;;7.35;100.00;95894.50;29396;260;63010;-51
2023/12/11 00:39:08;;;;;;;0.60;0.60;;;;;;;7.36;100.00;95901.50;29395;365;64013;-52
2023/12/11 00:39:40;;;;;;;0.50;0.50;;;;;;;7.37;100.00;95897.69;29396;323;63004;-54
2023/12/11 00:40:12;;;;;;;0.50;0.50;;;;;;;7.38;100.00;95900.09;29396;279;63009;-53
2023/12/11 00:40:45;;;;;;;0.55;0.55;;;;;;;7.38;100.00;95904.69;29396;222;63005;-53
2023/12/11 00:41:19;;;;;;;0.50;0.50;;;;;;;7.35;100.00;95902.59;29396;254;63009;-52
2023/12/11 00:41:51;;;;;;;0.50;0.50;;;;;;;7.33;100.00;95902.88;29396;256;63005;-52
2023/12/11 00:42:22;;;;;;;0.50;0.50;;;;;;;7.31;100.00;95905.06;29396;246;63009;-53
2023/12/11 00:42:54;;;;;;;0.50;0.50;;;;;;;7.30;100.00;95902.66;29396;212;63005;-52
2023/12/11 00:43:25;;;;;;;0.50;0.50;;;;;;;7.27;100.00;95903.28;29396;277;63009;-52
2023/12/11 00:43:57;;;;;;;0.57;0.57;;;;;;;7.24;100.00;95901.97;29396;255;63011;-52
2023/12/11 00:44:28;;;;;;;0.60;0.60;;;;;;;7.25;100.00;95906.28;29395;202;64013;-52
2023/12/11 00:44:59;;;;;;;0.50;0.50;;;;;;;7.26;100.00;95913.28;29396;265;63004;-54
2023/12/11 00:45:31;;;;;;;0.50;0.50;;;;;;;7.38;100.00;95907.41;29396;203;63009;-52
2023/12/11 00:46:03;;;;;;;0.50;0.50;;;;;;;7.39;100.00;95906.31;29396;259;63004;-52
2023/12/11 00:46:34;;;;;;;0.60;0.60;;;;;;;7.39;100.00;95907.09;29396;227;63019;-52
2023/12/11 00:47:05;;;;;;;0.50;0.50;;;;;;;7.37;100.00;95911.19;29396;231;63005;-53
2023/12/11 00:47:36;;;;;;;0.57;0.57;;;;;;;7.37;100.00;95920.09;29396;226;63009;-53
2023/12/11 00:48:08;;;;;;;0.50;0.50;;;;;;;7.40;100.00;95907.91;29396;222;63005;-53
2023/12/11 00:48:39;;;;;;;0.50;0.50;;;;;;;7.43;100.00;95920.00;29396;239;63009;-52
2023/12/11 00:49:11;;;;;;;0.50;0.50;;;;;;;7.42;100.00;95918.41;29396;251;63005;-52
2023/12/11 00:49:42;;;;;;;0.50;0.50;;;;;;;7.40;100.00;95924.09;29395;257;64013;-52
2023/12/11 00:50:13;;;;;;;0.50;0.50;;;;;;;7.37;100.00;95925.50;29396;274;63005;-52
2023/12/11 00:50:45;;;;;;;0.50;0.50;;;;;;;7.36;100.00;95933.88;29396;257;63009;-53
2023/12/11 00:51:18;;;;;;;0.50;0.50;;;;;;;7.34;100.00;95917.97;29396;228;63004;-53
2023/12/11 00:51:52;;;;;;;0.50;0.50;;;;;;;7.35;100.00;95933.06;29396;231;63009;-52
2023/12/11 00:52:24;;;;;;;0.50;0.50;;;;;;;7.37;100.00;95930.87;29396;276;63004;-52
2023/12/11 00:52:55;;;;;;;0.50;0.50;;;;;;;7.39;100.00;95934.09;29396;202;63009;-53
2023/12/11 00:53:26;;;;;;;0.60;0.60;;;;;;;7.39;100.00;95923.28;29396;206;63004;-53
2023/12/11 00:53:57;;;;;;;0.50;0.50;;;;;;;7.39;100.00;95923.28;29396;256;63008;-53
2023/12/11 00:54:28;;;;;;;0.50;0.50;;;;;;;7.38;100.00;95937.87;29396;203;63005;-54
2023/12/11 00:55:00;;;;;;;0.50;0.50;;;;;;;7.37;100.00;95935.47;29395;249;64014;-52
2023/12/11 00:55:31;;;;;;;0.50;0.50;;;;;;;7.44;100.00;95935.09;29396;221;63005;-54
2023/12/11 00:56:03;;;;;;;0.52;0.52;;;;;;;7.49;100.00;95935.81;29396;202;63009;-52
2023/12/11 00:56:34;;;;;;;0.50;0.50;;;;;;;7.47;100.00;95934.53;29396;203;63005;-52
2023/12/11 00:57:06;;;;;;;0.60;0.60;;;;;;;7.46;100.00;95930.22;29396;451;63009;-52
2023/12/11 00:57:37;;;;;;;0.50;0.50;;;;;;;7.43;100.00;95923.50;29396;203;63005;-52
2023/12/11 00:58:09;;;;;;;0.50;0.50;;;;;;;7.42;100.00;95923.81;29396;215;63009;-53
2023/12/11 00:58:40;;;;;;;0.50;0.50;;;;;;;7.40;100.00;95924.91;29396;220;63004;-52
2023/12/11 00:59:11;;;;;;;0.50;0.50;;;;;;;7.39;100.00;95927.91;29396;207;63009;-52
2023/12/11 00:59:42;;;;;;;0.50;0.50;;;;;;;7.38;100.00;95924.38;29396;227;63004;-52
2023/12/11 01:00:15;;;;;;;0.55;0.55;;;;;;;7.38;100.00;95927.09;29395;294;64013;-53
2023/12/11 01:00:46;;;;;;;0.60;0.60;;;;;;;7.36;100.00;95926.59;29396;292;63004;-53
2023/12/11 01:01:17;;;;;;;0.50;0.50;;;;;;;7.34;100.00;95926.06;29396;226;63019;-53
2023/12/11 01:01:49;;;;;;;0.50;0.50;;;;;;;7.33;100.00;95916.37;29396;199;63004;-52
2023/12/11 01:02:20;;;;;;;0.50;0.50;;;;;;;7.37;100.00;95914.69;29396;272;63009;-52
2023/12/11 01:02:51;;;;;;;0.50;0.50;;;;;;;7.37;100.00;95924.69;29396;404;63009;-53
2023/12/11 01:03:22;;;;;;;0.50;0.50;;;;;;;7.36;100.00;95923.09;29396;378;63009;-52
2023/12/11 01:03:54;;;;;;;0.50;0.50;;;;;;;7.34;100.00;95931.47;29396;288;63000;-53
2023/12/11 01:04:25;;;;;;;0.50;0.50;;;;;;;7.34;100.00;95930.66;29396;258;63009;-53
2023/12/11 01:04:57;;;;;;;0.50;0.50;;;;;;;7.33;100.00;95932.56;29396;257;63005;-53
2023/12/11 01:05:29;;;;;;;0.50;0.50;;;;;;;7.35;100.00;95933.06;29395;323;64013;-53
2023/12/11 01:06:00;;;;;;;0.50;0.50;;;;;;;7.37;100.00;95936.28;29396;260;63005;-53
2023/12/11 01:06:31;;;;;;;0.60;0.60;;;;;;;7.41;100.00;95936.50;29396;245;63009;-53
2023/12/11 01:07:03;;;;;;;0.50;0.50;;;;;;;7.42;100.00;95926.50;29396;211;63004;-54
2023/12/11 01:07:34;;;;;;;0.50;0.50;;;;;;;7.43;100.00;95925.41;29396;215;63009;-53
2023/12/11 01:08:07;;;;;;;0.50;0.50;;;;;;;7.43;100.00;95928.09;29396;270;63004;-53
2023/12/11 01:08:39;;;;;;;0.50;0.50;;;;;;;7.53;100.00;95927.94;29396;202;63008;-53
2023/12/11 01:09:10;;;;;;;0.60;0.60;;;;;;;7.59;100.00;95929.47;29396;205;63004;-53
2023/12/11 01:09:41;;;;;;;0.50;0.50;;;;;;;7.61;100.00;95935.38;29396;198;63009;-53
2023/12/11 01:10:12;;;;;;;0.60;0.60;;;;;;;7.62;100.00;95942.38;29396;309;63005;-53
2023/12/11 01:10:44;;;;;;;0.50;0.50;;;;;;;7.62;100.00;95934.25;29395;247;64014;-53
2023/12/11 01:11:15;;;;;;;0.50;0.50;;;;;;;7.62;100.00;95939.66;29396;274;63005;-55
2023/12/11 01:11:46;;;;;;;0.50;0.50;;;;;;;7.60;100.00;95933.75;29396;418;63009;-54
2023/12/11 01:12:19;;;;;;;0.50;0.50;;;;;;;7.62;100.00;95935.03;29396;269;63005;-53
2023/12/11 01:12:50;;;;;;;0.50;0.50;;;;;;;7.63;100.00;95938.53;29396;220;63009;-53
2023/12/11 01:13:22;;;;;;;0.50;0.50;;;;;;;7.61;100.00;95932.66;29397;218;63005;-56
2023/12/11 01:13:53;;;;;;;0.50;0.50;;;;;;;7.59;100.00;95940.25;29397;255;63009;-69
2023/12/11 01:14:24;;;;;;;0.50;0.50;;;;;;;7.58;100.00;95944.06;29397;233;63004;-55
2023/12/11 01:14:56;;;;;;;0.60;0.60;;;;;;;7.58;100.00;95936.75;29397;238;63009;-53
2023/12/11 01:15:27;;;;;;;0.50;0.50;;;;;;;7.57;100.00;95943.25;29397;471;63016;-53
2023/12/11 01:15:59;;;;;;;0.50;0.50;;;;;;;7.57;100.00;95939.75;29396;240;64013;-53
2023/12/11 01:16:30;;;;;;;0.50;0.50;;;;;;;7.54;100.00;95934.94;29397;302;63004;-53
2023/12/11 01:17:02;;;;;;;0.50;0.50;;;;;;;7.52;100.00;95942.53;29397;235;63009;-53
2023/12/11 01:17:33;;;;;;;0.50;0.50;;;;;;;7.51;100.00;95935.53;29397;265;63010;-53
2023/12/11 01:18:05;;;;;;;0.50;0.50;;;;;;;7.50;100.00;95940.13;29397;279;63009;-54
2023/12/11 01:18:36;;;;;;;0.50;0.50;;;;;;;7.49;100.00;95943.12;29397;248;63005;-55
2023/12/11 01:19:08;;;;;;;0.50;0.50;;;;;;;7.49;100.00;95935.03;29397;272;63005;-53
2023/12/11 01:19:41;;;;;;;0.50;0.50;;;;;;;7.54;100.00;95940.34;29397;231;63005;-53
2023/12/11 01:20:12;;;;;;;0.50;0.50;;;;;;;7.63;100.00;95933.13;29397;196;63009;-53
2023/12/11 01:20:43;;;;;;;0.50;0.50;;;;;;;7.62;100.00;95942.38;29397;216;63005;-53
2023/12/11 01:21:15;;;;;;;0.50;0.50;;;;;;;7.60;100.00;95944.56;29396;266;64013;-53
2023/12/11 01:21:46;;;;;;;0.50;0.50;;;;;;;7.57;100.00;95945.16;29397;225;63004;-58
2023/12/11 01:22:17;;;;;;;0.50;0.50;;;;;;;7.60;100.00;95939.16;29397;241;63009;-53
2023/12/11 01:22:48;;;;;;;0.50;0.50;;;;;;;7.58;100.00;95935.97;29397;215;63004;-52
2023/12/11 01:23:20;;;;;;;0.50;0.50;;;;;;;7.56;100.00;95940.84;29397;272;63009;-53
2023/12/11 01:23:51;;;;;;;0.50;0.50;;;;;;;7.53;100.00;95933.34;29397;237;63004;-53
2023/12/11 01:24:22;;;;;;;0.50;0.50;;;;;;;7.51;100.00;95936.34;29397;311;63008;-53
2023/12/11 01:25:01;;;;;;;0.50;0.50;;;;;;;7.49;100.00;95932.31;29397;276;63005;-52
2023/12/11 01:25:34;;;;;;;0.50;0.50;;;;;;;7.49;100.00;95932.31;29397;267;63026;-52
2023/12/11 01:26:09;;;;;;;0.50;0.50;;;;;;;7.47;100.00;95929.13;29396;228;63005;-53
2023/12/11 01:26:41;;;;;;;0.50;0.50;;;;;;;7.46;100.00;95922.91;29395;245;64013;-53
2023/12/11 01:27:12;;;;;;;0.50;0.50;;;;;;;7.47;100.00;95931.81;29397;243;63005;-53
2023/12/11 01:27:43;;;;;;;0.50;0.50;;;;;;;7.48;100.00;95930.72;29396;202;63009;-55
2023/12/11 01:28:14;;;;;;;0.50;0.50;;;;;;;7.48;100.00;95928.03;29396;206;63000;-53
2023/12/11 01:28:45;;;;;;;0.50;0.50;;;;;;;7.50;100.00;95925.84;29396;218;63009;-53
2023/12/11 01:29:17;;;;;;;0.50;0.50;;;;;;;7.55;100.00;95933.84;29396;208;63004;-53
2023/12/11 01:29:48;;;;;;;0.50;0.50;;;;;;;7.57;100.00;95939.75;29396;206;63009;-53
2023/12/11 01:30:19;;;;;;;0.50;0.50;;;;;;;7.59;100.00;95926.75;29396;250;63004;-55
2023/12/11 01:30:50;;;;;;;0.50;0.50;;;;;;;7.61;100.00;95929.97;29396;327;63009;-53
2023/12/11 01:31:23;;;;;;;0.50;0.50;;;;;;;7.66;100.00;95927.16;29396;253;63004;-57
2023/12/11 01:31:55;;;;;;;0.50;0.50;;;;;;;7.73;100.00;95917.56;29395;224;64013;-53
2023/12/11 01:32:26;;;;;;;0.60;0.60;;;;;;;7.71;100.00;95922.47;29396;447;63005;-53
2023/12/11 01:32:58;;;;;;;0.60;0.60;;;;;;;7.68;100.00;95912.25;29396;473;63009;-53
2023/12/11 01:33:29;;;;;;;0.50;0.50;;;;;;;7.67;100.00;95923.34;29396;203;63005;-53
2023/12/11 01:34:00;;;;;;;0.50;0.50;;;;;;;7.70;100.00;95922.75;29396;243;63009;-53
2023/12/11 01:34:32;;;;;;;0.50;0.50;;;;;;;7.68;100.00;95924.94;29396;202;63005;-52
2023/12/11 01:35:04;;;;;;;0.50;0.50;;;;;;;7.67;100.00;95926.06;29396;202;63009;-53
2023/12/11 01:35:36;;;;;;;0.50;0.50;;;;;;;7.68;100.00;95930.34;29396;245;63004;-53
2023/12/11 01:36:08;;;;;;;0.50;0.50;;;;;;;7.79;100.00;95931.78;29396;284;63009;-52
2023/12/11 01:36:41;;;;;;;0.50;0.50;;;;;;;7.78;100.00;95935.59;29396;251;63004;-52
2023/12/11 01:37:13;;;;;;;0.50;0.50;;;;;;;7.75;100.00;95936.16;29395;252;64032;-53
2023/12/11 01:37:44;;;;;;;0.50;0.50;;;;;;;7.75;100.00;95930.78;29396;202;63004;-53
2023/12/11 01:38:15;;;;;;;0.50;0.50;;;;;;;7.71;100.00;95927.88;29396;259;63008;-53
2023/12/11 01:38:47;;;;;;;0.50;0.50;;;;;;;7.73;100.00;95933.78;29396;224;63004;-55
2023/12/11 01:39:22;;;;;;;0.50;0.50;;;;;;;7.74;100.00;95927.28;29396;306;63008;-53
2023/12/11 01:39:53;;;;;;;0.50;0.50;;;;;;;7.73;100.00;95927.56;29396;211;63005;-53
2023/12/11 01:40:24;;;;;;;0.50;0.50;;;;;;;7.70;100.00;95934.34;29397;252;63009;-53
2023/12/11 01:40:56;;;;;;;0.50;0.50;;;;;;;7.69;100.00;95940.06;29396;211;63005;-53
2023/12/11 01:41:28;;;;;;;0.50;0.50;;;;;;;7.64;100.00;95930.16;29396;216;63009;-54
2023/12/11 01:41:59;;;;;;;0.50;0.50;;;;;;;7.62;100.00;95937.75;29396;227;63005;-53
2023/12/11 01:42:32;;;;;;;0.50;0.50;;;;;;;7.61;100.00;95935.38;29395;218;64013;-52
2023/12/11 01:43:14;;;;;;;0.50;0.50;;;;;;;7.60;100.00;95936.47;29397;273;63004;-53
2023/12/11 01:43:53;;;;;;;0.60;0.60;;;;;;;7.60;100.00;95944.56;29396;212;63017;-54
2023/12/11 01:44:25;;;;;;;0.50;0.50;;;;;;;7.58;100.00;95936.75;29396;264;63004;-54
2023/12/11 01:44:56;;;;;;;0.55;0.55;;;;;;;7.64;100.00;95940.13;29396;321;63009;-53
2023/12/11 01:45:27;;;;;;;0.50;0.50;;;;;;;7.70;100.00;95941.66;29396;251;63004;-54
2023/12/11 01:46:15;;;;;;;0.50;0.50;;;;;;;7.71;100.00;95929.75;29396;237;63008;-52
2023/12/11 01:46:47;;;;;;;0.52;0.52;;;;;;;7.65;100.00;95942.53;29396;259;63005;-72
2023/12/11 01:47:18;;;;;;;0.50;0.50;;;;;;;7.70;100.00;95938.97;29396;202;63014;-54
2023/12/11 01:47:50;;;;;;;0.60;0.60;;;;;;;7.74;100.00;95935.38;29395;241;64009;-54
2023/12/11 01:48:22;;;;;;;0.50;0.50;;;;;;;7.74;100.00;95939.97;29396;209;63009;-53
2023/12/11 01:48:54;;;;;;;0.50;0.50;;;;;;;7.75;100.00;95938.87;29396;358;63005;-53
2023/12/11 01:49:27;;;;;;;0.50;0.50;;;;;;;7.72;100.00;95944.88;29396;243;63009;-53
2023/12/11 01:49:59;;;;;;;0.50;0.50;;;;;;;7.69;100.00;95938.16;29396;212;63009;-67
2023/12/11 01:50:30;;;;;;;0.50;0.50;;;;;;;7.71;100.00;95941.38;29396;203;63009;-53
2023/12/11 01:51:02;;;;;;;0.50;0.50;;;;;;;7.70;100.00;95939.75;29396;280;63004;-54
2023/12/11 01:51:35;;;;;;;0.50;0.50;;;;;;;7.72;100.00;95947.56;29396;280;63019;-53
2023/12/11 01:52:08;;;;;;;0.60;0.60;;;;;;;7.72;100.00;95945.66;29396;259;63004;-53
2023/12/11 01:52:40;;;;;;;0.50;0.50;;;;;;;7.71;100.00;95940.56;29396;272;63009;-66
2023/12/11 01:53:11;;;;;;;0.50;0.50;;;;;;;7.69;100.00;95940.06;29395;319;64008;-53
2023/12/11 01:53:46;;;;;;;0.52;0.52;;;;;;;7.65;100.00;95933.66;29396;237;63008;-53
2023/12/11 01:54:19;;;;;;;0.50;0.50;;;;;;;7.64;100.00;95932.03;29396;230;63005;-53
2023/12/11 01:54:51;;;;;;;0.52;0.52;;;;;;;7.60;100.00;95929.16;29396;219;63009;-53
2023/12/11 01:55:23;;;;;;;0.50;0.50;;;;;;;7.63;100.00;95933.13;29396;228;63005;-53
2023/12/11 01:55:55;;;;;;;0.50;0.50;;;;;;;7.65;100.00;95930.94;29395;202;64013;-53
2023/12/11 01:56:27;;;;;;;0.60;0.60;;;;;;;7.62;100.00;95935.03;29396;273;63005;-52
2023/12/11 01:56:58;;;;;;;0.60;0.60;;;;;;;7.60;100.00;95926.47;29396;258;63009;-53
2023/12/11 01:57:30;;;;;;;0.50;0.50;;;;;;;7.59;100.00;95929.47;29396;256;63005;-53
2023/12/11 01:58:03;;;;;;;0.50;0.50;;;;;;;7.57;100.00;95927.06;29396;268;63009;-53
2023/12/11 01:58:34;;;;;;;0.50;0.50;;;;;;;7.57;100.00;95931.66;29396;253;63004;-53
2023/12/11 01:59:06;;;;;;;0.50;0.50;;;;;;;7.56;100.00;95921.94;29396;226;63004;-53
2023/12/11 01:59:39;;;;;;;0.50;0.50;;;;;;;7.53;100.00;95922.53;29396;259;63004;-53
2023/12/11 02:00:11;;;;;;;0.50;0.50;;;;;;;7.53;100.00;95925.25;29396;247;63009;-53
2023/12/11 02:00:43;;;;;;;0.60;0.60;;;;;;;7.52;100.00;95923.63;29396;242;63010;-53
2023/12/11 02:01:19;;;;;;;0.50;0.50;;;;;;;7.52;100.00;95931.75;29395;223;64013;-53
2023/12/11 02:01:51;;;;;;;0.50;0.50;;;;;;;7.53;100.00;95931.44;29396;229;63005;-53
2023/12/11 02:02:22;;;;;;;0.50;0.50;;;;;;;7.53;100.00;95933.34;29396;220;63009;-53
2023/12/11 02:02:54;;;;;;;0.50;0.50;;;;;;;7.55;100.00;95928.44;29396;265;63005;-53
2023/12/11 02:03:25;;;;;;;0.60;0.60;;;;;;;7.55;100.00;95925.75;29396;200;63009;-53
2023/12/11 02:03:56;;;;;;;0.50;0.50;;;;;;;7.54;100.00;95930.34;29396;239;63005;-53
2023/12/11 02:04:28;;;;;;;0.50;0.50;;;;;;;7.55;100.00;95933.84;29396;243;63009;-53
2023/12/11 02:05:00;;;;;;;0.57;0.57;;;;;;;7.55;100.00;95936.53;29396;253;63005;-53
2023/12/11 02:05:31;;;;;;;0.50;0.50;;;;;;;7.53;100.00;95944.13;29396;244;63009;-53
2023/12/11 02:06:04;;;;;;;0.60;0.60;;;;;;;7.53;100.00;95949.53;29396;223;63004;-53
2023/12/11 02:06:35;;;;;;;0.50;0.50;;;;;;;7.53;100.00;95944.13;29395;376;64013;-54
2023/12/11 02:07:06;;;;;;;0.50;0.50;;;;;;;7.54;100.00;95951.94;29396;293;63009;-52
2023/12/11 02:07:42;;;;;;;0.50;0.50;;;;;;;7.55;100.00;95952.75;29396;214;63009;-53
2023/12/11 02:08:15;;;;;;;0.50;0.50;;;;;;;7.54;100.00;95959.25;29396;212;63004;-53
2023/12/11 02:08:47;;;;;;;0.60;0.60;;;;;;;7.55;100.00;95950.03;29396;196;63008;-53
2023/12/11 02:09:18;;;;;;;0.60;0.60;;;;;;;7.55;100.00;95955.44;29396;220;63005;-53
2023/12/11 02:09:49;;;;;;;0.50;0.50;;;;;;;7.56;100.00;95955.16;29396;270;63018;-53
2023/12/11 02:10:21;;;;;;;0.47;0.47;;;;;;;7.57;100.00;95956.75;29396;273;63011;-53
2023/12/11 02:10:56;;;;;;;0.50;0.50;;;;;;;7.56;100.00;95948.94;29396;257;63009;-53
2023/12/11 02:11:27;;;;;;;0.50;0.50;;;;;;;7.57;100.00;95961.34;29396;243;63005;-53
2023/12/11 02:11:59;;;;;;;0.50;0.50;;;;;;;7.56;100.00;95959.75;29395;219;64013;-53
2023/12/11 02:12:30;;;;;;;0.50;0.50;;;;;;;7.59;100.00;95953.75;29396;214;63010;-53
2023/12/11 02:13:02;;;;;;;0.50;0.50;;;;;;;7.59;100.00;95954.56;29396;224;63009;-53
2023/12/11 02:13:36;;;;;;;0.50;0.50;;;;;;;7.61;100.00;95951.56;29396;221;63004;-53
2023/12/11 02:14:07;;;;;;;0.50;0.50;;;;;;;7.62;100.00;95958.56;29396;220;63009;-53
2023/12/11 02:14:39;;;;;;;0.50;0.50;;;;;;;7.62;100.00;95958.56;29396;263;63004;-53
2023/12/11 02:15:10;;;;;;;0.50;0.50;;;;;;;7.61;100.00;95957.75;29395;227;64009;-52
2023/12/11 02:15:46;;;;;;;0.50;0.50;;;;;;;7.59;100.00;95959.16;29396;199;63004;-52
2023/12/11 02:16:17;;;;;;;0.50;0.50;;;;;;;7.59;100.00;95953.75;29397;224;63008;-53
2023/12/11 02:16:49;;;;;;;0.50;0.50;;;;;;;7.58;100.00;95962.94;29397;453;63005;-53
2023/12/11 02:17:21;;;;;;;0.50;0.50;;;;;;;7.56;100.00;95955.16;29395;206;64014;-52
2023/12/11 02:17:52;;;;;;;0.50;0.50;;;;;;;7.57;100.00;95951.34;29397;228;63005;-54
2023/12/11 02:18:23;;;;;;;0.50;0.50;;;;;;;7.63;100.00;95952.84;29397;209;63009;-53
2023/12/11 02:18:56;;;;;;;0.50;0.50;;;;;;;7.63;100.00;95954.75;29397;235;63005;-53
2023/12/11 02:19:27;;;;;;;0.50;0.50;;;;;;;7.64;100.00;95950.94;29396;217;63023;-53
2023/12/11 02:19:58;;;;;;;0.50;0.50;;;;;;;7.61;100.00;95946.97;29397;361;63005;-52
2023/12/11 02:20:30;;;;;;;0.50;0.50;;;;;;;7.61;100.00;95940.75;29396;224;63009;-53
2023/12/11 02:21:02;;;;;;;0.50;0.50;;;;;;;7.61;100.00;95951.56;29395;254;63004;-53
2023/12/11 02:21:34;;;;;;;0.50;0.50;;;;;;;7.59;100.00;95951.84;29396;197;63009;-52
2023/12/11 02:22:05;;;;;;;0.50;0.50;;;;;;;7.60;100.00;95945.34;29395;289;63004;-53
2023/12/11 02:22:38;;;;;;;0.50;0.50;;;;;;;7.61;100.00;95948.88;29393;236;64013;-53
2023/12/11 02:23:25;;;;;;;0.50;0.50;;;;;;;7.61;100.00;95951.56;29395;407;63004;-53
2023/12/11 02:24:09;;;;;;;0.50;0.50;;;;;;;7.59;100.00;95940.25;29395;255;63008;-53
2023/12/11 02:24:47;;;;;;;0.50;0.50;;;;;;;7.59;100.00;95948.34;29395;198;63005;-53
2023/12/11 02:25:19;;;;;;;0.60;0.60;;;;;;;7.59;100.00;95948.34;29395;203;63009;-53
2023/12/11 02:26:00;;;;;;;0.50;0.50;;;;;;;7.61;100.00;95952.38;29395;452;63005;-54
2023/12/11 02:26:31;;;;;;;0.50;0.50;;;;;;;7.64;100.00;95954.44;29417;245;63009;-53
2023/12/11 02:27:03;;;;;;;0.60;0.60;;;;;;;7.67;100.00;95944.94;29395;274;63005;-53
2023/12/11 02:27:35;;;;;;;0.60;0.60;;;;;;;7.70;100.00;95944.34;29395;220;63009;-53
2023/12/11 02:28:06;;;;;;;0.50;0.50;;;;;;;7.70;100.00;95945.16;29393;229;64009;-53
2023/12/11 02:28:37;;;;;;;0.50;0.50;;;;;;;7.70;100.00;95942.47;29395;251;63009;-53
2023/12/11 02:29:09;;;;;;;0.50;0.50;;;;;;;7.69;100.00;95943.56;29395;229;63004;-53
2023/12/11 02:29:40;;;;;;;0.50;0.50;;;;;;;7.69;100.00;95943.56;29395;273;63009;-53
2023/12/11 02:30:12;;;;;;;0.50;0.50;;;;;;;7.72;100.00;95936.75;29395;260;63004;-53
2023/12/11 02:30:53;;;;;;;0.50;0.50;;;;;;;7.74;100.00;95935.38;29395;245;63009;-56
2023/12/11 02:31:24;;;;;;;0.60;0.60;;;;;;;7.75;100.00;95930.78;29422;206;63004;-52
2023/12/11 02:31:56;;;;;;;0.50;0.50;;;;;;;7.74;100.00;95924.56;29395;226;63009;-53
2023/12/11 02:32:27;;;;;;;0.50;0.50;;;;;;;7.73;100.00;95924.88;29395;221;63018;-54